createdAt,value
2022-12-11T00:06:28.923Z,35.92
2022-12-11T00:13:14.272Z,30.70
2022-12-11T00:20:02.750Z,29.20
2022-12-11T00:26:48.345Z,27.90
2022-12-11T00:33:33.722Z,30.98
2022-12-11T00:40:21.774Z,30.70
2022-12-11T00:47:08.536Z,28.95
2022-12-11T00:53:54.014Z,30.20
2022-12-11T01:00:44.156Z,31.20
2022-12-11T01:07:29.697Z,32.05
2022-12-11T01:14:15.764Z,28.67
2022-12-11T01:21:07.880Z,28.17
2022-12-11T01:27:54.692Z,28.45
2022-12-11T01:34:40.103Z,28.20
2022-12-11T01:41:28.951Z,29.03
2022-12-11T01:48:18.557Z,29.15
2022-12-11T01:55:04.826Z,30.05
2022-12-11T02:01:59.812Z,35.40
2022-12-11T02:08:45.218Z,29.92
2022-12-11T02:15:38.743Z,28.73
2022-12-11T02:22:41.545Z,28.88
2022-12-11T02:29:38.084Z,30.23
2022-12-11T02:36:28.321Z,28.10
2022-12-11T02:43:17.276Z,30.05
2022-12-11T02:50:12.797Z,29.48
2022-12-11T02:57:05.022Z,32.63
2022-12-11T03:03:53.262Z,31.98
2022-12-11T03:10:41.491Z,31.98
2022-12-11T03:17:33.167Z,36.03
2022-12-11T03:24:24.644Z,36.90
2022-12-11T03:31:17.097Z,37.40
2022-12-11T03:38:10.092Z,36.95
2022-12-11T03:44:58.208Z,38.83
2022-12-11T04:05:12.584Z,40.42
2022-12-11T04:11:58.240Z,38.88
2022-12-11T04:18:56.151Z,38.65
2022-12-11T04:25:44.279Z,39.63
2022-12-11T04:32:29.725Z,39.97
2022-12-11T04:39:15.222Z,38.80
2022-12-11T04:46:12.449Z,41.63
2022-12-11T04:52:58.774Z,41.95
2022-12-11T04:59:44.245Z,44.35
2022-12-11T05:06:32.217Z,43.03
2022-12-11T05:13:17.599Z,47.25
2022-12-11T05:20:05.523Z,46.55
2022-12-11T05:26:53.542Z,44.53
2022-12-11T05:33:38.980Z,46.40
2022-12-11T05:40:24.408Z,48.90
2022-12-11T05:47:12.452Z,47.40
2022-12-11T05:54:00.622Z,42.63
2022-12-11T06:00:47.276Z,44.65
2022-12-11T06:07:35.301Z,40.58
2022-12-11T06:14:20.749Z,45.53
2022-12-11T06:21:13.373Z,44.33
2022-12-11T06:28:01.788Z,46.92
2022-12-11T06:34:47.224Z,40.70
2022-12-11T06:41:32.623Z,40.95
2022-12-11T06:48:21.214Z,40.65
2022-12-11T06:55:07.282Z,42.58
2022-12-11T07:01:52.818Z,41.53
2022-12-11T07:08:41.036Z,41.60
2022-12-11T07:15:26.500Z,37.95
2022-12-11T07:22:12.161Z,38.53
2022-12-11T07:29:02.032Z,43.65
2022-12-11T07:35:48.575Z,41.53
2022-12-11T07:42:33.963Z,41.05
2022-12-11T07:49:21.962Z,43.60
2022-12-11T07:56:08.155Z,41.72
2022-12-11T08:02:53.615Z,41.63
2022-12-11T08:09:42.022Z,46.65
2022-12-11T08:16:27.676Z,40.95
2022-12-11T08:23:13.090Z,43.58
2022-12-11T08:30:01.211Z,40.85
2022-12-11T08:36:46.817Z,47.20
2022-12-11T08:43:32.279Z,48.75
2022-12-11T08:50:20.512Z,47.33
2022-12-11T08:57:05.949Z,40.08
2022-12-11T09:03:52.185Z,42.25
2022-12-11T09:10:40.263Z,42.53
2022-12-11T09:17:25.624Z,42.20
2022-12-11T09:24:13.921Z,45.90
2022-12-11T09:31:02.187Z,44.30
2022-12-11T09:37:47.652Z,47.08
2022-12-11T09:44:45.913Z,52.13
2022-12-11T09:51:42.328Z,49.55
2022-12-11T09:58:39.031Z,47.00
2022-12-11T10:05:34.442Z,49.33
2022-12-11T10:12:35.855Z,53.20
2022-12-11T10:19:25.785Z,48.53
2022-12-11T10:26:24.200Z,53.03
2022-12-11T10:33:23.504Z,52.88
2022-12-11T10:40:11.763Z,53.10
2022-12-11T10:47:09.679Z,52.55
2022-12-11T10:54:07.143Z,49.75
2022-12-11T11:01:07.957Z,49.42
2022-12-11T11:07:53.548Z,50.63
2022-12-11T11:14:41.690Z,48.85
2022-12-11T11:21:30.553Z,49.22
2022-12-11T11:28:23.972Z,49.30
2022-12-11T11:35:22.374Z,51.63
2022-12-11T11:42:18.209Z,51.03
2022-12-11T11:49:13.447Z,53.65
2022-12-11T11:56:16.063Z,49.25
2022-12-11T12:03:05.127Z,53.58
2022-12-11T12:10:01.147Z,51.70
2022-12-11T12:17:04.988Z,56.15
2022-12-11T12:24:17.009Z,53.88
2022-12-11T12:31:16.085Z,54.25
2022-12-11T12:38:14.376Z,52.92
2022-12-11T12:45:10.496Z,47.97
2022-12-11T12:51:57.195Z,49.50
2022-12-11T12:58:50.186Z,47.35
2022-12-11T13:05:38.050Z,49.40
2022-12-11T13:12:43.183Z,49.30
2022-12-11T13:19:42.249Z,52.08
2022-12-11T13:26:35.479Z,49.50
2022-12-11T13:33:23.030Z,50.45
2022-12-11T13:40:23.972Z,53.33
2022-12-11T13:47:16.218Z,52.55
2022-12-11T13:54:20.401Z,54.67
2022-12-11T14:01:13.574Z,56.30
2022-12-11T14:08:02.544Z,49.45
2022-12-11T14:14:53.969Z,47.65
2022-12-11T14:21:42.145Z,46.83
2022-12-11T14:28:31.243Z,51.70
2022-12-11T14:35:27.779Z,53.10
2022-12-11T14:42:22.297Z,50.95
2022-12-11T14:49:15.002Z,49.53
2022-12-11T14:56:05.737Z,50.60
2022-12-11T15:03:02.601Z,50.20
2022-12-11T15:09:50.384Z,49.63
2022-12-11T15:16:41.824Z,51.88
2022-12-11T15:23:30.831Z,49.85
2022-12-11T15:30:30.618Z,52.58
2022-12-11T15:37:27.097Z,50.95
2022-12-11T15:44:24.233Z,55.03
2022-12-11T15:57:58.254Z,50.03
2022-12-11T16:04:46.843Z,53.10
2022-12-11T16:11:32.321Z,49.55
2022-12-11T16:18:20.429Z,51.45
2022-12-11T16:25:10.590Z,54.10
2022-12-11T16:31:56.240Z,49.42
2022-12-11T16:38:41.680Z,50.85
2022-12-11T16:45:30.166Z,46.95
2022-12-11T16:52:21.808Z,55.60
2022-12-11T16:59:08.616Z,51.78
2022-12-11T17:05:56.623Z,51.90
2022-12-11T17:12:43.400Z,46.03
2022-12-11T17:19:30.061Z,48.33
2022-12-11T17:26:18.698Z,45.78
2022-12-11T17:33:04.665Z,46.47
2022-12-11T17:39:50.250Z,52.60
2022-12-11T17:46:38.288Z,54.17
2022-12-11T17:53:26.361Z,52.42
2022-12-11T18:00:13.996Z,50.08
2022-12-11T18:07:03.708Z,50.38
2022-12-11T18:13:50.322Z,50.15
2022-12-11T18:20:37.399Z,60.42
2022-12-11T18:27:25.571Z,53.13
2022-12-11T18:34:11.190Z,52.28
2022-12-11T18:40:56.622Z,53.13
2022-12-11T18:47:44.638Z,53.92
2022-12-11T18:54:30.077Z,51.83
2022-12-11T19:01:20.471Z,53.22
2022-12-11T19:08:09.001Z,49.08
2022-12-11T19:14:54.603Z,50.28
2022-12-11T19:21:41.476Z,50.85
2022-12-11T19:35:16.732Z,44.72
2022-12-11T19:42:02.386Z,52.17
2022-12-11T19:48:53.508Z,47.33
2022-12-11T19:55:39.116Z,46.88
2022-12-11T20:02:24.857Z,45.60
2022-12-11T20:09:14.593Z,45.10
2022-12-11T20:16:00.115Z,78.18
2022-12-11T20:22:46.824Z,52.03
2022-12-11T20:29:34.864Z,46.55
2022-12-11T20:36:22.218Z,48.33
2022-12-11T20:43:07.623Z,62.05
2022-12-11T20:49:55.977Z,49.28
2022-12-11T20:56:41.941Z,48.00
2022-12-11T21:03:27.442Z,43.37
2022-12-11T21:10:16.882Z,46.40
2022-12-11T21:17:04.517Z,46.83
2022-12-11T21:23:50.209Z,53.38
2022-12-11T21:30:41.289Z,47.33
2022-12-11T21:37:29.153Z,49.38
2022-12-11T21:51:27.703Z,46.15
2022-12-11T21:58:16.435Z,49.47
2022-12-11T22:05:04.955Z,49.17
2022-12-11T22:11:58.066Z,47.53
2022-12-11T22:18:44.194Z,41.80
2022-12-11T22:25:29.606Z,44.53
2022-12-11T22:32:17.930Z,45.85
2022-12-11T22:39:04.317Z,38.80
2022-12-11T22:52:39.495Z,37.60
2022-12-11T22:59:24.964Z,40.28
2022-12-11T23:06:12.174Z,38.70
2022-12-11T23:13:00.229Z,35.60
2022-12-11T23:19:46.847Z,37.63
2022-12-11T23:26:33.123Z,37.17
2022-12-11T23:33:21.767Z,36.17
2022-12-11T23:40:11.435Z,33.63
2022-12-11T23:46:56.851Z,34.80
2022-12-11T23:53:45.283Z,32.30
